sensor_id;sensor_type;location;lat;lon;timestamp;pressure;altitude;pressure_sealevel;temperature;humidity
38400;BME280;24180;42.676;23.320;2023-02-18T00:02:02;95529.63;;;3.48;100.00
38400;BME280;24180;42.676;23.320;2023-02-18T00:04:28;95528.38;;;3.55;100.00
38400;BME280;24180;42.676;23.320;2023-02-18T00:06:53;95517.50;;;3.36;100.00
38400;BME280;24180;42.676;23.320;2023-02-18T00:09:19;95495.34;;;3.35;100.00
38400;BME280;24180;42.676;23.320;2023-02-18T00:11:44;95505.75;;;3.32;100.00
38400;BME280;24180;42.676;23.320;2023-02-18T00:14:12;95508.09;;;3.52;100.00
38400;BME280;24180;42.676;23.320;2023-02-18T00:16:38;95501.13;;;3.54;100.00
38400;BME280;24180;42.676;23.320;2023-02-18T00:19:06;95482.13;;;3.11;100.00
38400;BME280;24180;42.676;23.320;2023-02-18T00:21:33;95501.78;;;3.26;100.00
38400;BME280;24180;42.676;23.320;2023-02-18T00:23:59;95466.94;;;2.93;100.00
38400;BME280;24180;42.676;23.320;2023-02-18T00:26:25;95465.53;;;3.03;100.00
38400;BME280;24180;42.676;23.320;2023-02-18T00:28:51;95488.25;;;3.09;100.00
38400;BME280;24180;42.676;23.320;2023-02-18T00:31:29;95489.63;;;3.14;100.00
38400;BME280;24180;42.676;23.320;2023-02-18T00:33:56;95449.75;;;2.95;100.00
38400;BME280;24180;42.676;23.320;2023-02-18T00:36:23;95455.88;;;2.92;100.00
38400;BME280;24180;42.676;23.320;2023-02-18T00:38:51;95469.41;;;3.10;100.00
38400;BME280;24180;42.676;23.320;2023-02-18T00:41:19;95476.13;;;3.28;100.00
38400;BME280;24180;42.676;23.320;2023-02-18T00:43:44;95461.47;;;2.99;100.00
38400;BME280;24180;42.676;23.320;2023-02-18T00:46:11;95450.00;;;2.90;100.00
38400;BME280;24180;42.676;23.320;2023-02-18T00:48:37;95453.63;;;3.02;100.00
38400;BME280;24180;42.676;23.320;2023-02-18T00:51:03;95468.03;;;3.20;100.00
38400;BME280;24180;42.676;23.320;2023-02-18T00:53:29;95469.75;;;3.04;100.00
38400;BME280;24180;42.676;23.320;2023-02-18T00:55:54;95444.63;;;2.79;100.00
38400;BME280;24180;42.676;23.320;2023-02-18T00:58:20;95467.47;;;2.82;100.00
38400;BME280;24180;42.676;23.320;2023-02-18T01:00:45;95471.84;;;2.80;100.00
38400;BME280;24180;42.676;23.320;2023-02-18T01:03:11;95468.41;;;2.97;100.00
38400;BME280;24180;42.676;23.320;2023-02-18T01:05:37;95416.19;;;2.52;100.00
38400;BME280;24180;42.676;23.320;2023-02-18T01:08:04;95463.63;;;2.91;100.00
38400;BME280;24180;42.676;23.320;2023-02-18T01:10:30;95467.00;;;2.91;100.00
38400;BME280;24180;42.676;23.320;2023-02-18T01:12:55;95474.91;;;2.87;100.00
38400;BME280;24180;42.676;23.320;2023-02-18T01:15:21;95470.13;;;2.80;100.00
38400;BME280;24180;42.676;23.320;2023-02-18T01:17:47;95467.38;;;2.68;100.00
38400;BME280;24180;42.676;23.320;2023-02-18T01:20:15;95458.47;;;2.75;100.00
38400;BME280;24180;42.676;23.320;2023-02-18T01:22:41;95432.53;;;2.65;100.00
38400;BME280;24180;42.676;23.320;2023-02-18T01:25:07;95418.03;;;2.66;100.00
38400;BME280;24180;42.676;23.320;2023-02-18T01:27:33;95476.81;;;2.99;100.00
38400;BME280;24180;42.676;23.320;2023-02-18T01:29:58;95435.94;;;2.81;100.00
38400;BME280;24180;42.676;23.320;2023-02-18T01:32:24;95458.84;;;3.00;100.00
38400;BME280;24180;42.676;23.320;2023-02-18T01:34:49;95462.72;;;2.92;100.00
38400;BME280;24180;42.676;23.320;2023-02-18T01:37:15;95448.19;;;2.76;100.00
38400;BME280;24180;42.676;23.320;2023-02-18T01:39:40;95431.75;;;2.80;100.00
38400;BME280;24180;42.676;23.320;2023-02-18T01:42:11;95442.72;;;2.82;100.00
38400;BME280;24180;42.676;23.320;2023-02-18T01:44:42;95478.47;;;3.00;100.00
38400;BME280;24180;42.676;23.320;2023-02-18T01:47:08;95474.66;;;2.91;100.00
38400;BME280;24180;42.676;23.320;2023-02-18T01:49:34;95467.34;;;3.01;100.00
38400;BME280;24180;42.676;23.320;2023-02-18T01:52:08;95459.97;;;2.79;100.00
38400;BME280;24180;42.676;23.320;2023-02-18T01:54:49;95475.50;;;2.92;100.00
38400;BME280;24180;42.676;23.320;2023-02-18T01:57:32;95459.50;;;2.88;100.00
38400;BME280;24180;42.676;23.320;2023-02-18T02:00:07;95459.31;;;2.91;100.00
38400;BME280;24180;42.676;23.320;2023-02-18T02:02:38;95470.19;;;2.79;100.00
38400;BME280;24180;42.676;23.320;2023-02-18T02:05:05;95477.66;;;2.99;100.00
38400;BME280;24180;42.676;23.320;2023-02-18T02:07:31;95478.97;;;2.91;100.00
38400;BME280;24180;42.676;23.320;2023-02-18T02:09:57;95469.75;;;3.04;100.00
38400;BME280;24180;42.676;23.320;2023-02-18T02:15:20;95440.56;;;2.75;100.00
38400;BME280;24180;42.676;23.320;2023-02-18T02:37:37;95441.09;;;2.49;100.00
38400;BME280;24180;42.676;23.320;2023-02-18T02:45:23;95442.72;;;2.82;100.00
38400;BME280;24180;42.676;23.320;2023-02-18T02:47:59;95447.53;;;2.56;100.00
38400;BME280;24180;42.676;23.320;2023-02-18T02:50:42;95439.34;;;2.49;100.00
38400;BME280;24180;42.676;23.320;2023-02-18T02:53:22;95421.44;;;2.49;100.00
38400;BME280;24180;42.676;23.320;2023-02-18T02:55:49;95416.50;;;2.46;100.00
38400;BME280;24180;42.676;23.320;2023-02-18T02:58:16;95425.66;;;2.50;100.00
38400;BME280;24180;42.676;23.320;2023-02-18T03:01:16;95464.91;;;2.82;100.00
38400;BME280;24180;42.676;23.320;2023-02-18T03:15:56;95445.66;;;1.92;100.00
38400;BME280;24180;42.676;23.320;2023-02-18T03:18:39;95453.97;;;2.13;100.00
38400;BME280;24180;42.676;23.320;2023-02-18T03:21:09;95451.19;;;2.17;100.00
38400;BME280;24180;42.676;23.320;2023-02-18T03:23:48;95436.78;;;2.16;100.00
38400;BME280;24180;42.676;23.320;2023-02-18T03:26:18;95479.53;;;2.30;100.00
38400;BME280;24180;42.676;23.320;2023-02-18T03:28:46;95484.25;;;2.38;100.00
38400;BME280;24180;42.676;23.320;2023-02-18T03:31:16;95471.78;;;2.14;100.00
38400;BME280;24180;42.676;23.320;2023-02-18T03:33:51;95497.63;;;2.25;100.00
38400;BME280;24180;42.676;23.320;2023-02-18T03:36:20;95502.63;;;2.28;100.00
38400;BME280;24180;42.676;23.320;2023-02-18T03:38:59;95515.63;;;2.24;100.00
38400;BME280;24180;42.676;23.320;2023-02-18T03:41:26;95490.94;;;2.06;100.00
38400;BME280;24180;42.676;23.320;2023-02-18T03:43:52;95497.03;;;2.03;100.00
38400;BME280;24180;42.676;23.320;2023-02-18T03:46:19;95465.09;;;1.77;100.00
38400;BME280;24180;42.676;23.320;2023-02-18T03:48:45;95508.00;;;2.05;100.00
38400;BME280;24180;42.676;23.320;2023-02-18T03:51:10;95505.81;;;1.98;100.00
38400;BME280;24180;42.676;23.320;2023-02-18T03:53:36;95513.16;;;1.86;100.00
38400;BME280;24180;42.676;23.320;2023-02-18T03:56:01;95512.66;;;1.97;100.00
38400;BME280;24180;42.676;23.320;2023-02-18T03:58:27;95495.06;;;1.91;100.00
38400;BME280;24180;42.676;23.320;2023-02-18T04:00:52;95508.47;;;1.96;100.00
38400;BME280;24180;42.676;23.320;2023-02-18T04:03:17;95498.38;;;1.93;100.00
38400;BME280;24180;42.676;23.320;2023-02-18T04:05:43;95502.63;;;1.75;100.00
38400;BME280;24180;42.676;23.320;2023-02-18T04:08:08;95504.47;;;1.91;100.00
38400;BME280;24180;42.676;23.320;2023-02-18T04:10:34;95502.88;;;1.88;100.00
38400;BME280;24180;42.676;23.320;2023-02-18T04:12:59;95497.66;;;2.08;100.00
38400;BME280;24180;42.676;23.320;2023-02-18T04:15:25;95479.44;;;1.97;100.00
38400;BME280;24180;42.676;23.320;2023-02-18T04:17:50;95463.75;;;1.87;100.00
38400;BME280;24180;42.676;23.320;2023-02-18T04:20:16;95459.47;;;1.88;100.00
38400;BME280;24180;42.676;23.320;2023-02-18T04:22:42;95464.19;;;1.78;100.00
38400;BME280;24180;42.676;23.320;2023-02-18T04:25:07;95477.25;;;1.89;100.00
38400;BME280;24180;42.676;23.320;2023-02-18T04:27:33;95455.88;;;1.92;100.00
38400;BME280;24180;42.676;23.320;2023-02-18T04:29:58;95476.06;;;2.14;100.00
38400;BME280;24180;42.676;23.320;2023-02-18T04:32:24;95465.84;;;2.14;100.00
38400;BME280;24180;42.676;23.320;2023-02-18T04:34:49;95478.31;;;2.03;100.00
38400;BME280;24180;42.676;23.320;2023-02-18T04:37:14;95461.19;;;2.05;100.00
38400;BME280;24180;42.676;23.320;2023-02-18T04:39:40;95485.63;;;2.10;100.00
38400;BME280;24180;42.676;23.320;2023-02-18T04:42:05;95446.34;;;1.96;100.00
38400;BME280;24180;42.676;23.320;2023-02-18T04:44:34;95480.72;;;2.23;100.00
38400;BME280;24180;42.676;23.320;2023-02-18T04:47:00;95482.22;;;2.10;100.00
38400;BME280;24180;42.676;23.320;2023-02-18T04:49:25;95481.63;;;2.05;100.00
38400;BME280;24180;42.676;23.320;2023-02-18T04:51:51;95461.81;;;1.93;100.00
38400;BME280;24180;42.676;23.320;2023-02-18T04:54:16;95478.72;;;2.12;100.00
38400;BME280;24180;42.676;23.320;2023-02-18T04:56:41;95489.00;;;2.28;100.00
38400;BME280;24180;42.676;23.320;2023-02-18T04:59:07;95490.56;;;2.13;100.00
38400;BME280;24180;42.676;23.320;2023-02-18T05:01:32;95502.38;;;2.16;100.00
38400;BME280;24180;42.676;23.320;2023-02-18T05:03:58;95480.28;;;1.98;100.00
38400;BME280;24180;42.676;23.320;2023-02-18T05:06:23;95463.38;;;1.95;100.00
38400;BME280;24180;42.676;23.320;2023-02-18T05:08:49;95509.59;;;2.08;100.00
38400;BME280;24180;42.676;23.320;2023-02-18T05:11:14;95481.16;;;1.97;100.00
38400;BME280;24180;42.676;23.320;2023-02-18T05:13:39;95509.56;;;1.91;100.00
38400;BME280;24180;42.676;23.320;2023-02-18T05:16:05;95511.09;;;2.12;100.00
38400;BME280;24180;42.676;23.320;2023-02-18T05:18:30;95485.38;;;1.98;100.00
38400;BME280;24180;42.676;23.320;2023-02-18T05:20:56;95483.88;;;1.94;100.00
38400;BME280;24180;42.676;23.320;2023-02-18T05:23:21;95493.72;;;2.01;100.00
38400;BME280;24180;42.676;23.320;2023-02-18T05:25:47;95496.66;;;2.11;100.00
38400;BME280;24180;42.676;23.320;2023-02-18T05:28:12;95443.63;;;1.99;100.00
38400;BME280;24180;42.676;23.320;2023-02-18T05:30:38;95481.41;;;2.26;100.00
38400;BME280;24180;42.676;23.320;2023-02-18T05:33:03;95453.00;;;2.15;100.00
38400;BME280;24180;42.676;23.320;2023-02-18T05:35:28;95464.50;;;2.24;100.00
38400;BME280;24180;42.676;23.320;2023-02-18T05:37:54;95457.56;;;2.43;100.00
38400;BME280;24180;42.676;23.320;2023-02-18T05:40:19;95461.63;;;2.47;100.00
38400;BME280;24180;42.676;23.320;2023-02-18T05:42:45;95449.69;;;2.30;100.00
38400;BME280;24180;42.676;23.320;2023-02-18T05:45:10;95472.91;;;2.43;100.00
38400;BME280;24180;42.676;23.320;2023-02-18T05:47:36;95462.16;;;2.37;100.00
38400;BME280;24180;42.676;23.320;2023-02-18T05:50:02;95488.06;;;2.46;100.00
38400;BME280;24180;42.676;23.320;2023-02-18T05:52:27;95495.13;;;2.58;100.00
38400;BME280;24180;42.676;23.320;2023-02-18T05:54:53;95505.97;;;2.63;100.00
38400;BME280;24180;42.676;23.320;2023-02-18T05:57:18;95511.22;;;2.60;100.00
38400;BME280;24180;42.676;23.320;2023-02-18T05:59:44;95494.41;;;2.56;100.00
38400;BME280;24180;42.676;23.320;2023-02-18T06:02:09;95489.56;;;2.67;100.00
38400;BME280;24180;42.676;23.320;2023-02-18T06:04:34;95493.59;;;2.71;100.00
38400;BME280;24180;42.676;23.320;2023-02-18T06:07:00;95521.59;;;2.90;100.00
38400;BME280;24180;42.676;23.320;2023-02-18T06:09:25;95473.00;;;2.90;100.00
38400;BME280;24180;42.676;23.320;2023-02-18T06:11:51;95500.91;;;2.95;100.00
38400;BME280;24180;42.676;23.320;2023-02-18T06:14:17;95488.06;;;3.12;100.00
38400;BME280;24180;42.676;23.320;2023-02-18T06:16:42;95506.59;;;3.17;100.00
38400;BME280;24180;42.676;23.320;2023-02-18T06:19:08;95478.56;;;2.98;100.00
38400;BME280;24180;42.676;23.320;2023-02-18T06:21:33;95471.63;;;3.00;100.00
38400;BME280;24180;42.676;23.320;2023-02-18T06:23:59;95491.72;;;3.39;100.00
38400;BME280;24180;42.676;23.320;2023-02-18T06:26:24;95471.13;;;3.09;100.00
38400;BME280;24180;42.676;23.320;2023-02-18T06:28:50;95488.41;;;3.37;100.00
38400;BME280;24180;42.676;23.320;2023-02-18T06:31:15;95489.75;;;3.44;100.00
38400;BME280;24180;42.676;23.320;2023-02-18T06:33:40;95435.72;;;3.02;100.00
38400;BME280;24180;42.676;23.320;2023-02-18T06:36:07;95484.22;;;3.36;100.00
38400;BME280;24180;42.676;23.320;2023-02-18T06:38:36;95455.41;;;3.33;100.00
38400;BME280;24180;42.676;23.320;2023-02-18T06:41:02;95488.72;;;3.62;100.00
38400;BME280;24180;42.676;23.320;2023-02-18T06:43:27;95488.63;;;3.80;100.00
38400;BME280;24180;42.676;23.320;2023-02-18T06:45:53;95469.69;;;3.82;100.00
38400;BME280;24180;42.676;23.320;2023-02-18T06:48:18;95492.59;;;4.15;100.00
38400;BME280;24180;42.676;23.320;2023-02-18T06:50:44;95472.28;;;4.12;100.00
38400;BME280;24180;42.676;23.320;2023-02-18T06:53:11;95485.25;;;4.39;100.00
38400;BME280;24180;42.676;23.320;2023-02-18T06:55:36;95491.38;;;4.36;100.00
38400;BME280;24180;42.676;23.320;2023-02-18T06:58:02;95465.31;;;4.14;100.00
38400;BME280;24180;42.676;23.320;2023-02-18T07:00:28;95467.09;;;4.28;100.00
38400;BME280;24180;42.676;23.320;2023-02-18T07:02:53;95490.63;;;4.64;100.00
38400;BME280;24180;42.676;23.320;2023-02-18T07:05:18;95468.97;;;4.54;100.00
38400;BME280;24180;42.676;23.320;2023-02-18T07:07:44;95486.69;;;4.87;100.00
38400;BME280;24180;42.676;23.320;2023-02-18T07:10:10;95499.34;;;5.04;100.00
38400;BME280;24180;42.676;23.320;2023-02-18T07:12:35;95497.47;;;5.06;100.00
38400;BME280;24180;42.676;23.320;2023-02-18T07:15:00;95484.84;;;5.17;100.00
38400;BME280;24180;42.676;23.320;2023-02-18T07:17:27;95458.97;;;5.06;100.00
38400;BME280;24180;42.676;23.320;2023-02-18T07:19:52;95483.50;;;5.38;100.00
38400;BME280;24180;42.676;23.320;2023-02-18T07:22:20;95475.81;;;5.52;100.00
38400;BME280;24180;42.676;23.320;2023-02-18T07:24:45;95472.25;;;5.68;100.00
38400;BME280;24180;42.676;23.320;2023-02-18T07:27:11;95465.81;;;5.75;100.00
38400;BME280;24180;42.676;23.320;2023-02-18T07:29:36;95453.16;;;5.98;100.00
38400;BME280;24180;42.676;23.320;2023-02-18T07:32:01;95445.16;;;6.03;100.00
38400;BME280;24180;42.676;23.320;2023-02-18T07:34:27;95455.09;;;6.22;100.00
38400;BME280;24180;42.676;23.320;2023-02-18T07:36:52;95477.44;;;6.46;100.00
38400;BME280;24180;42.676;23.320;2023-02-18T07:39:17;95485.38;;;6.56;100.00
38400;BME280;24180;42.676;23.320;2023-02-18T07:41:46;95491.44;;;6.55;100.00
38400;BME280;24180;42.676;23.320;2023-02-18T07:44:12;95490.34;;;6.72;100.00
38400;BME280;24180;42.676;23.320;2023-02-18T07:46:39;95501.47;;;6.85;99.85
38400;BME280;24180;42.676;23.320;2023-02-18T07:49:05;95476.75;;;6.70;97.37
38400;BME280;24180;42.676;23.320;2023-02-18T07:51:31;95481.25;;;6.66;96.06
38400;BME280;24180;42.676;23.320;2023-02-18T07:53:56;95504.19;;;6.44;94.77
38400;BME280;24180;42.676;23.320;2023-02-18T07:56:21;95502.50;;;6.30;96.37
38400;BME280;24180;42.676;23.320;2023-02-18T07:58:47;95444.78;;;6.09;96.98
38400;BME280;24180;42.676;23.320;2023-02-18T08:01:13;95500.53;;;6.86;94.22
38400;BME280;24180;42.676;23.320;2023-02-18T08:03:39;95483.22;;;6.75;94.83
38400;BME280;24180;42.676;23.320;2023-02-18T08:06:06;95457.50;;;6.88;94.87
38400;BME280;24180;42.676;23.320;2023-02-18T08:08:32;95486.81;;;7.23;92.09
38400;BME280;24180;42.676;23.320;2023-02-18T08:10:59;95487.72;;;7.22;92.97
38400;BME280;24180;42.676;23.320;2023-02-18T08:13:31;95488.38;;;7.62;90.07
38400;BME280;24180;42.676;23.320;2023-02-18T08:15:56;95488.88;;;7.91;87.30
38400;BME280;24180;42.676;23.320;2023-02-18T08:18:23;95480.94;;;8.18;86.20
38400;BME280;24180;42.676;23.320;2023-02-18T08:20:49;95473.34;;;7.80;85.80
38400;BME280;24180;42.676;23.320;2023-02-18T08:23:18;95466.38;;;7.45;87.97
38400;BME280;24180;42.676;23.320;2023-02-18T08:25:45;95468.38;;;7.66;87.28
38400;BME280;24180;42.676;23.320;2023-02-18T08:28:11;95439.13;;;7.54;87.35
38400;BME280;24180;42.676;23.320;2023-02-18T08:30:37;95466.34;;;7.58;87.06
38400;BME280;24180;42.676;23.320;2023-02-18T08:33:02;95446.19;;;7.63;87.26
38400;BME280;24180;42.676;23.320;2023-02-18T08:35:28;95452.28;;;8.10;85.68
38400;BME280;24180;42.676;23.320;2023-02-18T08:37:53;95470.09;;;8.36;83.72
38400;BME280;24180;42.676;23.320;2023-02-18T08:40:19;95455.63;;;8.69;82.58
38400;BME280;24180;42.676;23.320;2023-02-18T08:42:44;95441.13;;;8.90;80.99
38400;BME280;24180;42.676;23.320;2023-02-18T08:45:09;95450.03;;;8.97;78.49
38400;BME280;24180;42.676;23.320;2023-02-18T08:47:35;95433.84;;;9.06;78.78
38400;BME280;24180;42.676;23.320;2023-02-18T08:50:00;95428.09;;;9.03;76.88
38400;BME280;24180;42.676;23.320;2023-02-18T08:52:26;95434.75;;;9.16;76.27
38400;BME280;24180;42.676;23.320;2023-02-18T08:54:52;95441.91;;;9.46;77.51
38400;BME280;24180;42.676;23.320;2023-02-18T08:57:17;95436.00;;;9.55;74.56
38400;BME280;24180;42.676;23.320;2023-02-18T08:59:43;95438.41;;;9.79;73.60
38400;BME280;24180;42.676;23.320;2023-02-18T09:02:14;95439.66;;;9.96;73.39
38400;BME280;24180;42.676;23.320;2023-02-18T09:04:40;95452.41;;;10.19;72.51
38400;BME280;24180;42.676;23.320;2023-02-18T09:07:05;95446.91;;;9.70;71.79
38400;BME280;24180;42.676;23.320;2023-02-18T09:09:31;95461.75;;;9.57;72.95
38400;BME280;24180;42.676;23.320;2023-02-18T09:11:56;95444.19;;;9.71;73.56
38400;BME280;24180;42.676;23.320;2023-02-18T09:14:22;95471.59;;;9.74;72.37
38400;BME280;24180;42.676;23.320;2023-02-18T09:16:47;95421.69;;;9.40;72.87
38400;BME280;24180;42.676;23.320;2023-02-18T09:19:15;95439.63;;;9.64;72.80
38400;BME280;24180;42.676;23.320;2023-02-18T09:21:40;95462.72;;;9.99;73.13
38400;BME280;24180;42.676;23.320;2023-02-18T09:24:05;95440.00;;;10.02;72.77
38400;BME280;24180;42.676;23.320;2023-02-18T09:26:31;95456.59;;;10.31;71.21
38400;BME280;24180;42.676;23.320;2023-02-18T09:28:57;95445.22;;;9.80;69.80
38400;BME280;24180;42.676;23.320;2023-02-18T09:31:24;95423.00;;;9.46;71.05
38400;BME280;24180;42.676;23.320;2023-02-18T09:33:52;95439.59;;;9.75;70.45
38400;BME280;24180;42.676;23.320;2023-02-18T09:36:18;95426.19;;;10.13;69.54
38400;BME280;24180;42.676;23.320;2023-02-18T09:38:45;95438.94;;;10.57;69.21
38400;BME280;24180;42.676;23.320;2023-02-18T09:41:23;95417.69;;;10.84;65.96
38400;BME280;24180;42.676;23.320;2023-02-18T09:43:54;95400.22;;;11.16;63.62
38400;BME280;24180;42.676;23.320;2023-02-18T09:46:35;95431.44;;;12.14;61.57
38400;BME280;24180;42.676;23.320;2023-02-18T09:49:06;95430.09;;;13.41;57.57
38400;BME280;24180;42.676;23.320;2023-02-18T09:51:37;95400.13;;;14.53;51.22
38400;BME280;24180;42.676;23.320;2023-02-18T09:54:02;95427.00;;;14.71;49.52
38400;BME280;24180;42.676;23.320;2023-02-18T09:56:31;95408.78;;;14.18;49.95
38400;BME280;24180;42.676;23.320;2023-02-18T09:58:58;95404.38;;;14.19;49.41
38400;BME280;24180;42.676;23.320;2023-02-18T10:01:37;95414.56;;;14.30;49.10
38400;BME280;24180;42.676;23.320;2023-02-18T10:04:12;95392.09;;;14.29;49.86
38400;BME280;24180;42.676;23.320;2023-02-18T10:06:38;95399.16;;;14.54;47.64
38400;BME280;24180;42.676;23.320;2023-02-18T10:09:21;95412.19;;;15.73;45.51
38400;BME280;24180;42.676;23.320;2023-02-18T10:11:56;95382.53;;;17.12;42.82
38400;BME280;24180;42.676;23.320;2023-02-18T10:14:23;95362.41;;;18.13;40.37
38400;BME280;24180;42.676;23.320;2023-02-18T10:16:50;95379.72;;;20.42;35.97
38400;BME280;24180;42.676;23.320;2023-02-18T10:19:49;95384.56;;;21.50;33.10
38400;BME280;24180;42.676;23.320;2023-02-18T10:22:17;95377.91;;;21.95;32.77
38400;BME280;24180;42.676;23.320;2023-02-18T10:24:51;95368.66;;;22.45;31.58
38400;BME280;24180;42.676;23.320;2023-02-18T10:27:32;95376.63;;;22.77;30.32
38400;BME280;24180;42.676;23.320;2023-02-18T10:44:20;95359.06;;;24.38;27.63
38400;BME280;24180;42.676;23.320;2023-02-18T10:50:04;95309.19;;;22.75;28.76
38400;BME280;24180;42.676;23.320;2023-02-18T10:52:37;95340.53;;;25.73;26.29
38400;BME280;24180;42.676;23.320;2023-02-18T10:55:14;95315.38;;;24.53;26.54
38400;BME280;24180;42.676;23.320;2023-02-18T10:57:51;95331.16;;;23.66;27.51
38400;BME280;24180;42.676;23.320;2023-02-18T11:00:19;95319.75;;;22.75;27.95
38400;BME280;24180;42.676;23.320;2023-02-18T11:03:12;95334.38;;;20.40;30.75
38400;BME280;24180;42.676;23.320;2023-02-18T11:05:39;95308.13;;;19.32;30.92
38400;BME280;24180;42.676;23.320;2023-02-18T11:08:07;95322.44;;;18.71;31.63
38400;BME280;24180;42.676;23.320;2023-02-18T11:10:39;95323.50;;;19.35;31.02
38400;BME280;24180;42.676;23.320;2023-02-18T11:13:07;95319.28;;;21.11;29.48
38400;BME280;24180;42.676;23.320;2023-02-18T11:15:35;95312.22;;;22.65;27.13
38400;BME280;24180;42.676;23.320;2023-02-18T11:20:58;95281.97;;;21.00;28.69
38400;BME280;24180;42.676;23.320;2023-02-18T11:23:24;95302.47;;;20.28;28.80
38400;BME280;24180;42.676;23.320;2023-02-18T11:26:00;95285.69;;;19.15;30.48
38400;BME280;24180;42.676;23.320;2023-02-18T11:28:48;95303.25;;;17.73;31.50
38400;BME280;24180;42.676;23.320;2023-02-18T11:31:21;95285.09;;;16.94;32.36
38400;BME280;24180;42.676;23.320;2023-02-18T11:33:51;95291.81;;;16.09;33.90
38400;BME280;24180;42.676;23.320;2023-02-18T11:36:22;95253.75;;;15.90;34.34
38400;BME280;24180;42.676;23.320;2023-02-18T11:38:52;95282.81;;;16.03;34.66
38400;BME280;24180;42.676;23.320;2023-02-18T11:41:34;95265.00;;;16.07;34.66
38400;BME280;24180;42.676;23.320;2023-02-18T11:44:02;95253.59;;;16.00;34.88
38400;BME280;24180;42.676;23.320;2023-02-18T11:46:29;95234.50;;;15.83;34.39
38400;BME280;24180;42.676;23.320;2023-02-18T11:48:54;95227.00;;;15.80;33.71
38400;BME280;24180;42.676;23.320;2023-02-18T11:51:31;95245.41;;;16.03;33.35
38400;BME280;24180;42.676;23.320;2023-02-18T11:54:08;95233.31;;;16.10;33.76
38400;BME280;24180;42.676;23.320;2023-02-18T11:59:21;95202.59;;;16.36;33.07
38400;BME280;24180;42.676;23.320;2023-02-18T12:02:01;95226.91;;;16.45;33.06
38400;BME280;24180;42.676;23.320;2023-02-18T12:04:42;95232.13;;;16.45;33.38
38400;BME280;24180;42.676;23.320;2023-02-18T12:07:14;95227.22;;;16.42;33.42
38400;BME280;24180;42.676;23.320;2023-02-18T12:09:47;95181.88;;;16.10;33.44
38400;BME280;24180;42.676;23.320;2023-02-18T12:12:26;95208.78;;;16.35;33.48
38400;BME280;24180;42.676;23.320;2023-02-18T12:14:55;95224.63;;;16.33;33.51
38400;BME280;24180;42.676;23.320;2023-02-18T12:17:48;95235.25;;;16.32;34.52
38400;BME280;24180;42.676;23.320;2023-02-18T12:25:46;95204.31;;;15.88;35.94
38400;BME280;24180;42.676;23.320;2023-02-18T12:34:59;95208.13;;;16.25;36.42
38400;BME280;24180;42.676;23.320;2023-02-18T12:40:06;95167.03;;;16.11;37.08
38400;BME280;24180;42.676;23.320;2023-02-18T12:43:01;95189.72;;;16.18;36.76
38400;BME280;24180;42.676;23.320;2023-02-18T12:48:38;95169.97;;;16.16;36.31
38400;BME280;24180;42.676;23.320;2023-02-18T13:02:30;95175.34;;;16.22;37.10
38400;BME280;24180;42.676;23.320;2023-02-18T13:08:06;95179.69;;;16.38;36.20
38400;BME280;24180;42.676;23.320;2023-02-18T13:10:55;95185.84;;;16.61;35.97
38400;BME280;24180;42.676;23.320;2023-02-18T13:13:34;95180.56;;;16.69;35.13
38400;BME280;24180;42.676;23.320;2023-02-18T13:16:12;95160.94;;;16.73;35.09
38400;BME280;24180;42.676;23.320;2023-02-18T13:18:39;95182.50;;;16.83;35.38
38400;BME280;24180;42.676;23.320;2023-02-18T13:21:14;95155.78;;;16.57;35.51
38400;BME280;24180;42.676;23.320;2023-02-18T13:24:01;95178.47;;;16.73;35.67
38400;BME280;24180;42.676;23.320;2023-02-18T13:26:30;95155.47;;;16.52;35.55
38400;BME280;24180;42.676;23.320;2023-02-18T13:34:31;95188.06;;;16.17;38.60
38400;BME280;24180;42.676;23.320;2023-02-18T13:37:05;95183.41;;;15.88;39.37
38400;BME280;24180;42.676;23.320;2023-02-18T13:39:33;95171.66;;;15.84;39.91
38400;BME280;24180;42.676;23.320;2023-02-18T13:42:41;95179.00;;;15.81;40.52
38400;BME280;24180;42.676;23.320;2023-02-18T13:47:48;95181.63;;;15.49;41.13
38400;BME280;24180;42.676;23.320;2023-02-18T13:58:04;95183.69;;;15.29;42.07
38400;BME280;24180;42.676;23.320;2023-02-18T14:00:40;95143.72;;;14.96;42.00
38400;BME280;24180;42.676;23.320;2023-02-18T14:03:33;95184.66;;;15.04;42.57
38400;BME280;24180;42.676;23.320;2023-02-18T14:06:00;95168.34;;;15.02;42.82
38400;BME280;24180;42.676;23.320;2023-02-18T14:08:34;95152.59;;;14.69;43.39
38400;BME280;24180;42.676;23.320;2023-02-18T14:13:48;95173.47;;;14.77;43.45
38400;BME280;24180;42.676;23.320;2023-02-18T14:16:18;95172.63;;;14.69;43.61
38400;BME280;24180;42.676;23.320;2023-02-18T14:28:43;95181.00;;;14.38;44.42
38400;BME280;24180;42.676;23.320;2023-02-18T14:45:24;95138.88;;;13.83;45.84
38400;BME280;24180;42.676;23.320;2023-02-18T14:50:23;95170.03;;;14.01;46.30
38400;BME280;24180;42.676;23.320;2023-02-18T14:52:53;95179.22;;;14.13;46.38
38400;BME280;24180;42.676;23.320;2023-02-18T14:55:29;95175.31;;;14.17;46.41
38400;BME280;24180;42.676;23.320;2023-02-18T14:58:02;95179.38;;;14.12;46.97
38400;BME280;24180;42.676;23.320;2023-02-18T15:00:32;95166.50;;;14.10;46.83
38400;BME280;24180;42.676;23.320;2023-02-18T15:03:00;95149.66;;;13.96;47.00
38400;BME280;24180;42.676;23.320;2023-02-18T15:05:28;95150.28;;;13.90;47.48
38400;BME280;24180;42.676;23.320;2023-02-18T15:10:37;95175.00;;;13.86;48.24
38400;BME280;24180;42.676;23.320;2023-02-18T15:13:04;95172.34;;;13.78;48.11
38400;BME280;24180;42.676;23.320;2023-02-18T15:15:33;95163.00;;;13.68;48.50
38400;BME280;24180;42.676;23.320;2023-02-18T15:18:02;95182.56;;;13.72;48.86
38400;BME280;24180;42.676;23.320;2023-02-18T15:20:30;95169.16;;;13.67;48.73
38400;BME280;24180;42.676;23.320;2023-02-18T15:22:58;95126.78;;;13.31;48.98